Weather observations for the past three days for
VIGIE/ST LUCIA
Metric (Imperial)
Date Time (ast) Wind (kph) Vis. (km) Weather Sky Cond. Temperature (ºC) Relative Humidity Wind Chill (°C) Heat Index (°C) Pressure Precipitation (cm)
Air Dwpt 6 hour altimeter (cm) sea level (mb) 1 hr 3 hr 6 hr
Max. Min.
02 09:00 E 17 0.00 A Few Clouds FEW022 30 24 70% 35 0 0.0
02 08:00 E 17 0.00 A Few Clouds FEW022 30 24 70% 35 0 0.0
01 20:00 E 11 0.00 A Few Clouds FEW023 28 24 79% 32 0 0.0
01 19:00 E 11 0.00 A Few Clouds FEW023 28 24 79% 32 0 0.0
01 18:00 E 13 0.00 A Few Clouds FEW023 29 24 74% 34 0 0.0
01 17:00 E 17 0.00 A Few Clouds FEW024 30 24 70% 35 0 0.0
01 16:00 E 15 0.00 Partly Cloudy SCT023 31 24 66% 37 0 0.0
01 15:00 E 19 0.00 Partly Cloudy SCT023 30 24 70% 35 0 0.0
01 14:00 E 15 0.00 Mostly Cloudy BKN023 31 25 70% 38 0 0.0
01 12:00 E 22 0.00 Partly Cloudy SCT022 31 25 70% 38 0 0.0
01 11:00 E 17 0.00 Partly Cloudy SCT022 30 25 75% 36 0 0.0
01 10:00 E 15 0.00 Partly Cloudy SCT022 31 24 66% 37 0 0.0
01 09:00 E 13 0.00 Partly Cloudy SCT026 30 24 70% 35 0 0.0
31 20:00 E 9 0.00 A Few Clouds FEW024 28 25 84% 33 0 0.0
31 18:00 E 13 0.00 Partly Cloudy SCT026 29 25 79% 35 0 0.0
31 16:00 E 15 0.00 Partly Cloudy SCT026 30 25 75% 36 0 0.0
31 15:00 E 20 0.00 Partly Cloudy SCT026 31 25 70% 38 0 0.0
31 12:00 E 24 0.00 Partly Cloudy SCT026 31 25 70% 38 0 0.0
31 11:00 E 24 0.00 Partly Cloudy SCT026 31 25 70% 38 0 0.0
31 10:00 E 20 G 39 0.00 Partly Cloudy SCT025 30 25 75% 36 0 0.0
31 09:00 E 20 G 39 0.00 Partly Cloudy SCT025 30 25 75% 36 0 0.0
31 08:00 E 15 0.00 Partly Cloudy SCT024 29 25 79% 35 0 0.0
30 19:00 E 7 0.00 Mostly Cloudy FEW023 BKN038 27 24 84% 30 0 0.0
30 18:00 E 7 0.00 Mostly Cloudy FEW019CB BKN036 27 24 84% 30 0 0.0
30 17:00 E 9 0.00 Mostly Cloudy FEW017CB BKN036 27 24 84% 30 0 0.0
30 16:00 E 7 0.00 Mostly Cloudy FEW019CB BKN036 27 24 84% 30 0 0.0
30 15:00 S 7 0.00 Light Showers Rain Showers Rain FEW017CB SCT022 BKN036 28 25 84% 33 0 0.0
30 14:00 SE 30 G 52 0.00 Showers Rain FEW018CB BKN022 32 25 67% 39 0 0.0
30 13:00 SE 13 0.00 Partly Cloudy FEW018CB SCT022 31 24 66% 37 0 0.0
30 12:00 SE 15 0.00 Mostly Cloudy FEW018CB SCT022 BKN038 31 24 66% 37 0 0.0
30 11:00 SE 15 0.00 Mostly Cloudy FEW018CB SCT022 BKN038 30 25 75% 36 0 0.0
30 10:00 S 9 0.00 Light Showers Rain FEW018CB BKN022 28 26 89% 34 0 0.0
Date Time (ast) Wind (kph) Vis. (km) Weather Sky Cond. Air Dwpt Max. Min. Relative Humidity Wind Chill (°C) Heat Index (°C) altimeter (cm) sea level (mb) 1 hr 3 hr 6 hr
6 hour
Temperature (ºC) Pressure Precipitation (cm)